sensor_id;sensor_type;location;lat;lon;timestamp;P1;durP1;ratioP1;P2;durP2;ratioP2
45642;SDS011;31358;46.008;11.144;2022-09-17T00:01:32;5.97;;;1.67;;
45642;SDS011;31358;46.008;11.144;2022-09-17T00:03:58;5.18;;;2.00;;
45642;SDS011;31358;46.008;11.144;2022-09-17T00:06:28;4.85;;;1.83;;
45642;SDS011;31358;46.008;11.144;2022-09-17T00:08:54;4.35;;;1.90;;
45642;SDS011;31358;46.008;11.144;2022-09-17T00:11:21;5.88;;;1.83;;
45642;SDS011;31358;46.008;11.144;2022-09-17T00:13:50;3.40;;;1.40;;
45642;SDS011;31358;46.008;11.144;2022-09-17T00:19:16;5.18;;;2.10;;
45642;SDS011;31358;46.008;11.144;2022-09-17T00:21:43;4.93;;;1.60;;
45642;SDS011;31358;46.008;11.144;2022-09-17T00:24:10;4.38;;;1.65;;
45642;SDS011;31358;46.008;11.144;2022-09-17T00:26:38;8.48;;;1.73;;
45642;SDS011;31358;46.008;11.144;2022-09-17T00:29:04;4.35;;;1.60;;
45642;SDS011;31358;46.008;11.144;2022-09-17T00:31:30;5.68;;;1.48;;
45642;SDS011;31358;46.008;11.144;2022-09-17T00:33:57;4.50;;;2.10;;
45642;SDS011;31358;46.008;11.144;2022-09-17T00:36:23;3.33;;;1.27;;
45642;SDS011;31358;46.008;11.144;2022-09-17T00:38:50;5.60;;;1.27;;
45642;SDS011;31358;46.008;11.144;2022-09-17T00:41:20;5.30;;;1.20;;
45642;SDS011;31358;46.008;11.144;2022-09-17T00:43:48;3.05;;;1.10;;
45642;SDS011;31358;46.008;11.144;2022-09-17T00:46:24;4.30;;;1.23;;
45642;SDS011;31358;46.008;11.144;2022-09-17T00:49:16;3.53;;;1.20;;
45642;SDS011;31358;46.008;11.144;2022-09-17T00:52:04;2.40;;;0.95;;
45642;SDS011;31358;46.008;11.144;2022-09-17T00:54:32;4.53;;;1.50;;
45642;SDS011;31358;46.008;11.144;2022-09-17T00:57:00;3.08;;;1.10;;
45642;SDS011;31358;46.008;11.144;2022-09-17T00:59:27;2.38;;;1.10;;
45642;SDS011;31358;46.008;11.144;2022-09-17T01:01:53;2.42;;;1.17;;
45642;SDS011;31358;46.008;11.144;2022-09-17T01:04:19;3.00;;;1.35;;
45642;SDS011;31358;46.008;11.144;2022-09-17T01:06:51;1.73;;;0.80;;
45642;SDS011;31358;46.008;11.144;2022-09-17T01:28:33;2.80;;;1.20;;
45642;SDS011;31358;46.008;11.144;2022-09-17T01:42:36;5.78;;;1.23;;
45642;SDS011;31358;46.008;11.144;2022-09-17T01:47:23;4.60;;;1.48;;
45642;SDS011;31358;46.008;11.144;2022-09-17T01:50:06;2.88;;;1.23;;
45642;SDS011;31358;46.008;11.144;2022-09-17T01:52:37;3.15;;;1.30;;
45642;SDS011;31358;46.008;11.144;2022-09-17T01:55:09;4.72;;;1.20;;
45642;SDS011;31358;46.008;11.144;2022-09-17T01:57:39;3.30;;;1.50;;
45642;SDS011;31358;46.008;11.144;2022-09-17T02:00:11;2.47;;;0.70;;
45642;SDS011;31358;46.008;11.144;2022-09-17T02:05:19;4.55;;;1.10;;
45642;SDS011;31358;46.008;11.144;2022-09-17T02:08:05;3.83;;;0.60;;
45642;SDS011;31358;46.008;11.144;2022-09-17T02:10:44;3.90;;;0.80;;
45642;SDS011;31358;46.008;11.144;2022-09-17T02:13:31;1.85;;;0.70;;
45642;SDS011;31358;46.008;11.144;2022-09-17T02:19:08;0.75;;;0.38;;
45642;SDS011;31358;46.008;11.144;2022-09-17T02:24:41;2.53;;;0.40;;
45642;SDS011;31358;46.008;11.144;2022-09-17T02:29:47;1.08;;;0.45;;
45642;SDS011;31358;46.008;11.144;2022-09-17T02:32:13;4.68;;;1.25;;
45642;SDS011;31358;46.008;11.144;2022-09-17T02:34:39;4.00;;;0.80;;
45642;SDS011;31358;46.008;11.144;2022-09-17T02:37:05;2.50;;;0.70;;
45642;SDS011;31358;46.008;11.144;2022-09-17T02:39:32;1.58;;;0.45;;
45642;SDS011;31358;46.008;11.144;2022-09-17T02:55:11;1.13;;;0.35;;
45642;SDS011;31358;46.008;11.144;2022-09-17T03:00:12;1.30;;;0.30;;
45642;SDS011;31358;46.008;11.144;2022-09-17T03:03:05;1.58;;;0.32;;
45642;SDS011;31358;46.008;11.144;2022-09-17T03:05:36;1.00;;;0.38;;
45642;SDS011;31358;46.008;11.144;2022-09-17T03:08:07;0.60;;;0.40;;
45642;SDS011;31358;46.008;11.144;2022-09-17T03:10:36;1.02;;;0.30;;
45642;SDS011;31358;46.008;11.144;2022-09-17T03:13:02;2.25;;;0.85;;
45642;SDS011;31358;46.008;11.144;2022-09-17T03:15:28;2.22;;;0.80;;
45642;SDS011;31358;46.008;11.144;2022-09-17T03:17:54;0.68;;;0.20;;
45642;SDS011;31358;46.008;11.144;2022-09-17T03:20:19;0.65;;;0.43;;
45642;SDS011;31358;46.008;11.144;2022-09-17T03:22:45;0.82;;;0.50;;
45642;SDS011;31358;46.008;11.144;2022-09-17T03:25:11;1.40;;;0.35;;
45642;SDS011;31358;46.008;11.144;2022-09-17T03:27:37;0.73;;;0.30;;
45642;SDS011;31358;46.008;11.144;2022-09-17T03:30:03;1.08;;;0.52;;
45642;SDS011;31358;46.008;11.144;2022-09-17T03:32:30;1.92;;;0.57;;
45642;SDS011;31358;46.008;11.144;2022-09-17T03:34:56;2.33;;;0.50;;
45642;SDS011;31358;46.008;11.144;2022-09-17T03:37:21;0.57;;;0.20;;
45642;SDS011;31358;46.008;11.144;2022-09-17T03:39:47;0.30;;;0.22;;
45642;SDS011;31358;46.008;11.144;2022-09-17T03:42:13;0.93;;;0.30;;
45642;SDS011;31358;46.008;11.144;2022-09-17T03:44:38;1.65;;;0.40;;
45642;SDS011;31358;46.008;11.144;2022-09-17T03:47:04;0.45;;;0.20;;
45642;SDS011;31358;46.008;11.144;2022-09-17T03:49:30;0.43;;;0.13;;
45642;SDS011;31358;46.008;11.144;2022-09-17T03:51:55;0.68;;;0.38;;
45642;SDS011;31358;46.008;11.144;2022-09-17T03:54:21;0.90;;;0.20;;
45642;SDS011;31358;46.008;11.144;2022-09-17T03:56:47;0.52;;;0.22;;
45642;SDS011;31358;46.008;11.144;2022-09-17T03:59:13;3.90;;;0.43;;
45642;SDS011;31358;46.008;11.144;2022-09-17T04:01:38;0.90;;;0.30;;
45642;SDS011;31358;46.008;11.144;2022-09-17T04:04:04;2.80;;;0.30;;
45642;SDS011;31358;46.008;11.144;2022-09-17T04:06:30;1.10;;;0.35;;
45642;SDS011;31358;46.008;11.144;2022-09-17T04:08:55;0.50;;;0.10;;
45642;SDS011;31358;46.008;11.144;2022-09-17T04:11:21;1.90;;;0.43;;
45642;SDS011;31358;46.008;11.144;2022-09-17T04:13:47;2.30;;;0.38;;
45642;SDS011;31358;46.008;11.144;2022-09-17T04:16:13;0.80;;;0.32;;
45642;SDS011;31358;46.008;11.144;2022-09-17T04:18:39;0.35;;;0.20;;
45642;SDS011;31358;46.008;11.144;2022-09-17T04:21:04;0.15;;;0.10;;
45642;SDS011;31358;46.008;11.144;2022-09-17T04:23:30;0.85;;;0.25;;
45642;SDS011;31358;46.008;11.144;2022-09-17T04:25:56;1.02;;;0.20;;
45642;SDS011;31358;46.008;11.144;2022-09-17T04:28:22;0.45;;;0.20;;
45642;SDS011;31358;46.008;11.144;2022-09-17T04:30:48;1.90;;;0.57;;
45642;SDS011;31358;46.008;11.144;2022-09-17T04:33:13;0.73;;;0.35;;
45642;SDS011;31358;46.008;11.144;2022-09-17T04:35:39;0.85;;;0.35;;
45642;SDS011;31358;46.008;11.144;2022-09-17T04:38:05;1.05;;;0.13;;
45642;SDS011;31358;46.008;11.144;2022-09-17T04:40:31;0.55;;;0.20;;
45642;SDS011;31358;46.008;11.144;2022-09-17T04:42:57;0.65;;;0.28;;
45642;SDS011;31358;46.008;11.144;2022-09-17T04:45:24;1.27;;;0.40;;
45642;SDS011;31358;46.008;11.144;2022-09-17T04:47:50;0.82;;;0.30;;
45642;SDS011;31358;46.008;11.144;2022-09-17T04:50:18;1.15;;;0.40;;
45642;SDS011;31358;46.008;11.144;2022-09-17T04:52:45;1.42;;;0.25;;
45642;SDS011;31358;46.008;11.144;2022-09-17T04:55:12;0.22;;;0.10;;
45642;SDS011;31358;46.008;11.144;2022-09-17T04:57:38;0.77;;;0.32;;
45642;SDS011;31358;46.008;11.144;2022-09-17T05:00:09;0.28;;;0.00;;
45642;SDS011;31358;46.008;11.144;2022-09-17T05:02:35;0.20;;;0.10;;
45642;SDS011;31358;46.008;11.144;2022-09-17T05:05:01;0.00;;;0.00;;
45642;SDS011;31358;46.008;11.144;2022-09-17T05:07:27;1.83;;;0.10;;
45642;SDS011;31358;46.008;11.144;2022-09-17T05:09:52;0.05;;;0.05;;
45642;SDS011;31358;46.008;11.144;2022-09-17T05:12:18;0.13;;;0.03;;
45642;SDS011;31358;46.008;11.144;2022-09-17T05:14:44;2.10;;;0.25;;
45642;SDS011;31358;46.008;11.144;2022-09-17T05:17:09;0.70;;;0.20;;
45642;SDS011;31358;46.008;11.144;2022-09-17T05:19:35;0.10;;;0.00;;
45642;SDS011;31358;46.008;11.144;2022-09-17T05:22:01;0.30;;;0.10;;
45642;SDS011;31358;46.008;11.144;2022-09-17T05:24:27;0.32;;;0.20;;
45642;SDS011;31358;46.008;11.144;2022-09-17T05:26:52;0.95;;;0.20;;
45642;SDS011;31358;46.008;11.144;2022-09-17T05:29:18;0.55;;;0.08;;
45642;SDS011;31358;46.008;11.144;2022-09-17T05:31:43;0.20;;;0.00;;
45642;SDS011;31358;46.008;11.144;2022-09-17T05:34:09;0.93;;;0.03;;
45642;SDS011;31358;46.008;11.144;2022-09-17T05:36:35;0.22;;;0.13;;
45642;SDS011;31358;46.008;11.144;2022-09-17T05:39:01;0.40;;;0.10;;
45642;SDS011;31358;46.008;11.144;2022-09-17T05:41:26;0.35;;;0.10;;
45642;SDS011;31358;46.008;11.144;2022-09-17T05:43:52;0.47;;;0.10;;
45642;SDS011;31358;46.008;11.144;2022-09-17T05:46:18;0.90;;;0.10;;
45642;SDS011;31358;46.008;11.144;2022-09-17T05:48:43;1.05;;;0.20;;
45642;SDS011;31358;46.008;11.144;2022-09-17T05:51:09;0.20;;;0.05;;
45642;SDS011;31358;46.008;11.144;2022-09-17T05:53:35;0.52;;;0.08;;
45642;SDS011;31358;46.008;11.144;2022-09-17T05:56:01;0.73;;;0.05;;
45642;SDS011;31358;46.008;11.144;2022-09-17T05:58:27;0.10;;;0.10;;
45642;SDS011;31358;46.008;11.144;2022-09-17T06:00:53;0.43;;;0.20;;
45642;SDS011;31358;46.008;11.144;2022-09-17T06:03:19;0.52;;;0.17;;
45642;SDS011;31358;46.008;11.144;2022-09-17T06:05:53;0.45;;;0.00;;
45642;SDS011;31358;46.008;11.144;2022-09-17T06:08:23;3.08;;;0.47;;
45642;SDS011;31358;46.008;11.144;2022-09-17T06:10:49;0.43;;;0.05;;
45642;SDS011;31358;46.008;11.144;2022-09-17T06:13:18;0.00;;;0.00;;
45642;SDS011;31358;46.008;11.144;2022-09-17T06:15:51;0.75;;;0.10;;
45642;SDS011;31358;46.008;11.144;2022-09-17T06:18:17;0.20;;;0.10;;
45642;SDS011;31358;46.008;11.144;2022-09-17T06:20:53;0.45;;;0.08;;
45642;SDS011;31358;46.008;11.144;2022-09-17T06:23:20;0.10;;;0.00;;
45642;SDS011;31358;46.008;11.144;2022-09-17T06:25:53;0.55;;;0.20;;
45642;SDS011;31358;46.008;11.144;2022-09-17T06:28:21;0.22;;;0.03;;
45642;SDS011;31358;46.008;11.144;2022-09-17T06:30:47;4.20;;;1.75;;
45642;SDS011;31358;46.008;11.144;2022-09-17T06:33:13;4.35;;;0.22;;
45642;SDS011;31358;46.008;11.144;2022-09-17T06:35:39;0.70;;;0.20;;
45642;SDS011;31358;46.008;11.144;2022-09-17T06:38:05;0.47;;;0.10;;
45642;SDS011;31358;46.008;11.144;2022-09-17T06:40:30;0.80;;;0.20;;
45642;SDS011;31358;46.008;11.144;2022-09-17T06:42:57;0.90;;;0.32;;
45642;SDS011;31358;46.008;11.144;2022-09-17T06:45:26;1.23;;;0.20;;
45642;SDS011;31358;46.008;11.144;2022-09-17T06:47:52;1.88;;;0.55;;
45642;SDS011;31358;46.008;11.144;2022-09-17T06:50:19;2.05;;;0.50;;
45642;SDS011;31358;46.008;11.144;2022-09-17T06:52:48;4.47;;;1.25;;
45642;SDS011;31358;46.008;11.144;2022-09-17T06:55:15;7.50;;;2.40;;
45642;SDS011;31358;46.008;11.144;2022-09-17T06:57:41;1.08;;;0.40;;
45642;SDS011;31358;46.008;11.144;2022-09-17T07:00:08;0.30;;;0.13;;
45642;SDS011;31358;46.008;11.144;2022-09-17T07:02:34;0.80;;;0.20;;
45642;SDS011;31358;46.008;11.144;2022-09-17T07:05:00;0.55;;;0.20;;
45642;SDS011;31358;46.008;11.144;2022-09-17T07:07:26;0.80;;;0.35;;
45642;SDS011;31358;46.008;11.144;2022-09-17T07:09:53;1.13;;;0.30;;
45642;SDS011;31358;46.008;11.144;2022-09-17T07:12:18;0.63;;;0.20;;
45642;SDS011;31358;46.008;11.144;2022-09-17T07:14:44;0.10;;;0.10;;
45642;SDS011;31358;46.008;11.144;2022-09-17T07:17:11;0.52;;;0.10;;
45642;SDS011;31358;46.008;11.144;2022-09-17T07:19:38;0.60;;;0.10;;
45642;SDS011;31358;46.008;11.144;2022-09-17T07:22:03;0.63;;;0.20;;
45642;SDS011;31358;46.008;11.144;2022-09-17T07:24:29;0.75;;;0.30;;
45642;SDS011;31358;46.008;11.144;2022-09-17T07:26:55;1.15;;;0.32;;
45642;SDS011;31358;46.008;11.144;2022-09-17T07:29:20;0.80;;;0.38;;
45642;SDS011;31358;46.008;11.144;2022-09-17T07:31:50;2.42;;;0.15;;
45642;SDS011;31358;46.008;11.144;2022-09-17T07:34:16;0.80;;;0.40;;
45642;SDS011;31358;46.008;11.144;2022-09-17T07:36:42;1.33;;;0.35;;
45642;SDS011;31358;46.008;11.144;2022-09-17T07:39:08;1.02;;;0.13;;
45642;SDS011;31358;46.008;11.144;2022-09-17T07:41:35;0.38;;;0.17;;
45642;SDS011;31358;46.008;11.144;2022-09-17T07:44:01;0.35;;;0.05;;
45642;SDS011;31358;46.008;11.144;2022-09-17T07:46:27;0.40;;;0.20;;
45642;SDS011;31358;46.008;11.144;2022-09-17T07:48:53;0.88;;;0.40;;
45642;SDS011;31358;46.008;11.144;2022-09-17T07:51:23;0.35;;;0.20;;
45642;SDS011;31358;46.008;11.144;2022-09-17T07:53:52;1.08;;;0.30;;
45642;SDS011;31358;46.008;11.144;2022-09-17T07:56:19;0.35;;;0.00;;
45642;SDS011;31358;46.008;11.144;2022-09-17T07:58:46;0.45;;;0.35;;
45642;SDS011;31358;46.008;11.144;2022-09-17T08:01:12;0.30;;;0.15;;
45642;SDS011;31358;46.008;11.144;2022-09-17T08:03:42;0.47;;;0.25;;
45642;SDS011;31358;46.008;11.144;2022-09-17T08:06:13;0.10;;;0.10;;
45642;SDS011;31358;46.008;11.144;2022-09-17T08:08:40;0.52;;;0.20;;
45642;SDS011;31358;46.008;11.144;2022-09-17T08:11:09;0.85;;;0.10;;
45642;SDS011;31358;46.008;11.144;2022-09-17T08:13:37;2.17;;;0.20;;
45642;SDS011;31358;46.008;11.144;2022-09-17T08:16:04;1.60;;;0.45;;
45642;SDS011;31358;46.008;11.144;2022-09-17T08:18:32;0.47;;;0.20;;
45642;SDS011;31358;46.008;11.144;2022-09-17T08:20:58;1.35;;;0.63;;
45642;SDS011;31358;46.008;11.144;2022-09-17T08:23:26;1.83;;;0.40;;
45642;SDS011;31358;46.008;11.144;2022-09-17T08:25:56;1.20;;;0.55;;
45642;SDS011;31358;46.008;11.144;2022-09-17T08:28:23;2.03;;;0.50;;
45642;SDS011;31358;46.008;11.144;2022-09-17T08:30:51;33.97;;;7.78;;
45642;SDS011;31358;46.008;11.144;2022-09-17T08:33:17;22.38;;;4.35;;
45642;SDS011;31358;46.008;11.144;2022-09-17T08:35:53;12.50;;;3.38;;
45642;SDS011;31358;46.008;11.144;2022-09-17T08:38:23;3.92;;;1.15;;
45642;SDS011;31358;46.008;11.144;2022-09-17T08:43:32;8.05;;;1.27;;
45642;SDS011;31358;46.008;11.144;2022-09-17T08:46:03;5.57;;;1.30;;
45642;SDS011;31358;46.008;11.144;2022-09-17T08:48:32;12.00;;;1.58;;
45642;SDS011;31358;46.008;11.144;2022-09-17T08:54:05;3.33;;;0.63;;
45642;SDS011;31358;46.008;11.144;2022-09-17T08:56:34;1.35;;;0.68;;
45642;SDS011;31358;46.008;11.144;2022-09-17T09:07:14;0.95;;;0.32;;
45642;SDS011;31358;46.008;11.144;2022-09-17T09:09:49;0.85;;;0.22;;
45642;SDS011;31358;46.008;11.144;2022-09-17T09:12:25;1.10;;;0.38;;
45642;SDS011;31358;46.008;11.144;2022-09-17T09:15:03;0.90;;;0.30;;
45642;SDS011;31358;46.008;11.144;2022-09-17T09:17:37;0.40;;;0.20;;
45642;SDS011;31358;46.008;11.144;2022-09-17T09:20:18;0.70;;;0.20;;
45642;SDS011;31358;46.008;11.144;2022-09-17T09:22:50;0.82;;;0.30;;
45642;SDS011;31358;46.008;11.144;2022-09-17T09:25:18;0.93;;;0.25;;
45642;SDS011;31358;46.008;11.144;2022-09-17T09:30:40;1.02;;;0.28;;
45642;SDS011;31358;46.008;11.144;2022-09-17T09:33:29;0.60;;;0.20;;
45642;SDS011;31358;46.008;11.144;2022-09-17T09:35:59;2.35;;;0.40;;
45642;SDS011;31358;46.008;11.144;2022-09-17T09:38:32;0.88;;;0.38;;
45642;SDS011;31358;46.008;11.144;2022-09-17T09:51:44;0.70;;;0.22;;
45642;SDS011;31358;46.008;11.144;2022-09-17T10:03:35;1.13;;;0.57;;
45642;SDS011;31358;46.008;11.144;2022-09-17T10:05:48;1.92;;;0.40;;
45642;SDS011;31358;46.008;11.144;2022-09-17T10:08:17;1.15;;;0.43;;
45642;SDS011;31358;46.008;11.144;2022-09-17T10:10:52;1.55;;;0.30;;
45642;SDS011;31358;46.008;11.144;2022-09-17T10:13:19;0.52;;;0.22;;
45642;SDS011;31358;46.008;11.144;2022-09-17T10:15:44;1.10;;;0.63;;
45642;SDS011;31358;46.008;11.144;2022-09-17T10:20:50;1.58;;;0.40;;
45642;SDS011;31358;46.008;11.144;2022-09-17T10:23:18;1.02;;;0.40;;
45642;SDS011;31358;46.008;11.144;2022-09-17T10:25:45;0.98;;;0.40;;
45642;SDS011;31358;46.008;11.144;2022-09-17T10:31:09;1.33;;;0.25;;
45642;SDS011;31358;46.008;11.144;2022-09-17T10:33:39;0.93;;;0.25;;
45642;SDS011;31358;46.008;11.144;2022-09-17T10:36:15;1.13;;;0.38;;
45642;SDS011;31358;46.008;11.144;2022-09-17T10:38:42;0.35;;;0.15;;
45642;SDS011;31358;46.008;11.144;2022-09-17T10:43:46;1.23;;;0.30;;
45642;SDS011;31358;46.008;11.144;2022-09-17T10:46:24;1.45;;;0.17;;
45642;SDS011;31358;46.008;11.144;2022-09-17T10:49:09;1.15;;;0.38;;
45642;SDS011;31358;46.008;11.144;2022-09-17T10:51:41;0.65;;;0.20;;
45642;SDS011;31358;46.008;11.144;2022-09-17T10:54:14;0.80;;;0.25;;
45642;SDS011;31358;46.008;11.144;2022-09-17T10:57:13;1.23;;;0.30;;
45642;SDS011;31358;46.008;11.144;2022-09-17T10:59:49;2.00;;;0.25;;
45642;SDS011;31358;46.008;11.144;2022-09-17T11:07:52;0.10;;;0.10;;
45642;SDS011;31358;46.008;11.144;2022-09-17T11:19:06;0.60;;;0.30;;
45642;SDS011;31358;46.008;11.144;2022-09-17T11:21:38;2.00;;;0.65;;
45642;SDS011;31358;46.008;11.144;2022-09-17T11:29:55;0.65;;;0.32;;
45642;SDS011;31358;46.008;11.144;2022-09-17T11:35:16;0.50;;;0.20;;
45642;SDS011;31358;46.008;11.144;2022-09-17T11:37:51;0.20;;;0.10;;
45642;SDS011;31358;46.008;11.144;2022-09-17T11:45:56;0.40;;;0.10;;
45642;SDS011;31358;46.008;11.144;2022-09-17T11:48:37;1.23;;;0.52;;
45642;SDS011;31358;46.008;11.144;2022-09-17T11:51:17;0.75;;;0.30;;
45642;SDS011;31358;46.008;11.144;2022-09-17T11:53:45;0.47;;;0.20;;
45642;SDS011;31358;46.008;11.144;2022-09-17T11:56:32;2.05;;;0.28;;
45642;SDS011;31358;46.008;11.144;2022-09-17T12:02:13;0.70;;;0.25;;
45642;SDS011;31358;46.008;11.144;2022-09-17T12:05:06;0.52;;;0.13;;
45642;SDS011;31358;46.008;11.144;2022-09-17T12:13:01;0.20;;;0.15;;
45642;SDS011;31358;46.008;11.144;2022-09-17T12:15:37;1.00;;;0.40;;
45642;SDS011;31358;46.008;11.144;2022-09-17T12:18:19;0.73;;;0.20;;
45642;SDS011;31358;46.008;11.144;2022-09-17T12:20:56;0.55;;;0.40;;
45642;SDS011;31358;46.008;11.144;2022-09-17T12:23:37;0.20;;;0.20;;
45642;SDS011;31358;46.008;11.144;2022-09-17T12:32:08;0.40;;;0.28;;
45642;SDS011;31358;46.008;11.144;2022-09-17T12:34:46;0.05;;;0.05;;
45642;SDS011;31358;46.008;11.144;2022-09-17T12:37:54;0.28;;;0.17;;
45642;SDS011;31358;46.008;11.144;2022-09-17T12:40:30;2.00;;;0.10;;
45642;SDS011;31358;46.008;11.144;2022-09-17T12:43:10;1.00;;;0.40;;
45642;SDS011;31358;46.008;11.144;2022-09-17T12:51:29;0.40;;;0.10;;
45642;SDS011;31358;46.008;11.144;2022-09-17T12:57:31;0.70;;;0.40;;
45642;SDS011;31358;46.008;11.144;2022-09-17T13:00:07;1.08;;;0.30;;
45642;SDS011;31358;46.008;11.144;2022-09-17T13:05:33;0.77;;;0.20;;
45642;SDS011;31358;46.008;11.144;2022-09-17T13:13:31;2.28;;;0.20;;
45642;SDS011;31358;46.008;11.144;2022-09-17T13:18:59;1.05;;;0.50;;
45642;SDS011;31358;46.008;11.144;2022-09-17T13:24:21;0.45;;;0.20;;
45642;SDS011;31358;46.008;11.144;2022-09-17T13:26:52;0.20;;;0.10;;
45642;SDS011;31358;46.008;11.144;2022-09-17T13:40:19;0.50;;;0.25;;
45642;SDS011;31358;46.008;11.144;2022-09-17T13:42:51;0.15;;;0.10;;
45642;SDS011;31358;46.008;11.144;2022-09-17T13:45:24;0.63;;;0.10;;
45642;SDS011;31358;46.008;11.144;2022-09-17T13:47:51;0.55;;;0.10;;
45642;SDS011;31358;46.008;11.144;2022-09-17T13:50:25;0.90;;;0.00;;
45642;SDS011;31358;46.008;11.144;2022-09-17T13:52:51;0.35;;;0.13;;
45642;SDS011;31358;46.008;11.144;2022-09-17T13:57:58;0.45;;;0.20;;
45642;SDS011;31358;46.008;11.144;2022-09-17T14:05:55;0.20;;;0.10;;
45642;SDS011;31358;46.008;11.144;2022-09-17T14:13:48;0.17;;;0.17;;
45642;SDS011;31358;46.008;11.144;2022-09-17T14:35:42;0.40;;;0.10;;
45642;SDS011;31358;46.008;11.144;2022-09-17T14:43:45;1.65;;;0.22;;
45642;SDS011;31358;46.008;11.144;2022-09-17T14:46:20;0.55;;;0.25;;
45642;SDS011;31358;46.008;11.144;2022-09-17T14:51:47;1.85;;;0.20;;
45642;SDS011;31358;46.008;11.144;2022-09-17T14:54:14;0.75;;;0.22;;
45642;SDS011;31358;46.008;11.144;2022-09-17T14:59:26;3.15;;;0.30;;
45642;SDS011;31358;46.008;11.144;2022-09-17T15:02:17;0.65;;;0.10;;
45642;SDS011;31358;46.008;11.144;2022-09-17T15:04:48;3.03;;;0.30;;
45642;SDS011;31358;46.008;11.144;2022-09-17T15:07:14;1.27;;;0.30;;
45642;SDS011;31358;46.008;11.144;2022-09-17T15:09:39;0.47;;;0.20;;
45642;SDS011;31358;46.008;11.144;2022-09-17T15:12:05;0.38;;;0.20;;
45642;SDS011;31358;46.008;11.144;2022-09-17T15:14:35;1.35;;;0.40;;
45642;SDS011;31358;46.008;11.144;2022-09-17T15:17:03;0.68;;;0.30;;
45642;SDS011;31358;46.008;11.144;2022-09-17T15:19:41;1.75;;;0.20;;
45642;SDS011;31358;46.008;11.144;2022-09-17T15:22:16;0.93;;;0.20;;
45642;SDS011;31358;46.008;11.144;2022-09-17T15:27:23;1.10;;;0.45;;
45642;SDS011;31358;46.008;11.144;2022-09-17T15:29:59;1.15;;;0.40;;
45642;SDS011;31358;46.008;11.144;2022-09-17T15:32:31;1.52;;;0.50;;
45642;SDS011;31358;46.008;11.144;2022-09-17T15:37:41;0.68;;;0.20;;
45642;SDS011;31358;46.008;11.144;2022-09-17T15:40:50;0.40;;;0.28;;
45642;SDS011;31358;46.008;11.144;2022-09-17T15:51:00;2.35;;;0.60;;
45642;SDS011;31358;46.008;11.144;2022-09-17T15:53:28;1.52;;;0.50;;
45642;SDS011;31358;46.008;11.144;2022-09-17T16:01:19;0.52;;;0.20;;
45642;SDS011;31358;46.008;11.144;2022-09-17T16:08:46;2.60;;;0.40;;
45642;SDS011;31358;46.008;11.144;2022-09-17T16:11:17;1.58;;;0.50;;
45642;SDS011;31358;46.008;11.144;2022-09-17T16:13:45;7.03;;;1.15;;
45642;SDS011;31358;46.008;11.144;2022-09-17T16:16:18;2.53;;;0.85;;
45642;SDS011;31358;46.008;11.144;2022-09-17T16:18:43;7.65;;;2.72;;
45642;SDS011;31358;46.008;11.144;2022-09-17T16:21:10;3.78;;;1.80;;
45642;SDS011;31358;46.008;11.144;2022-09-17T16:23:36;4.13;;;0.95;;
45642;SDS011;31358;46.008;11.144;2022-09-17T16:26:02;1.83;;;0.55;;
45642;SDS011;31358;46.008;11.144;2022-09-17T16:28:29;0.68;;;0.22;;
45642;SDS011;31358;46.008;11.144;2022-09-17T16:30:55;0.57;;;0.20;;
45642;SDS011;31358;46.008;11.144;2022-09-17T16:33:21;0.40;;;0.20;;
45642;SDS011;31358;46.008;11.144;2022-09-17T16:35:47;2.30;;;0.40;;
45642;SDS011;31358;46.008;11.144;2022-09-17T16:38:12;0.80;;;0.47;;
45642;SDS011;31358;46.008;11.144;2022-09-17T16:40:39;1.60;;;0.40;;
45642;SDS011;31358;46.008;11.144;2022-09-17T16:43:10;0.30;;;0.20;;
45642;SDS011;31358;46.008;11.144;2022-09-17T16:45:36;1.10;;;0.40;;
45642;SDS011;31358;46.008;11.144;2022-09-17T16:48:03;1.92;;;0.63;;
45642;SDS011;31358;46.008;11.144;2022-09-17T16:50:29;0.93;;;0.30;;
45642;SDS011;31358;46.008;11.144;2022-09-17T16:52:55;1.15;;;0.50;;
45642;SDS011;31358;46.008;11.144;2022-09-17T16:55:21;1.35;;;0.43;;
45642;SDS011;31358;46.008;11.144;2022-09-17T16:57:47;1.08;;;0.32;;
45642;SDS011;31358;46.008;11.144;2022-09-17T17:00:14;0.80;;;0.22;;
45642;SDS011;31358;46.008;11.144;2022-09-17T17:02:47;1.38;;;0.88;;
45642;SDS011;31358;46.008;11.144;2022-09-17T17:05:19;3.67;;;0.40;;
45642;SDS011;31358;46.008;11.144;2022-09-17T17:07:45;5.50;;;0.40;;
45642;SDS011;31358;46.008;11.144;2022-09-17T17:10:11;0.35;;;0.20;;
45642;SDS011;31358;46.008;11.144;2022-09-17T17:12:37;1.77;;;0.40;;
45642;SDS011;31358;46.008;11.144;2022-09-17T17:15:03;0.15;;;0.15;;
45642;SDS011;31358;46.008;11.144;2022-09-17T17:17:30;1.55;;;0.55;;
45642;SDS011;31358;46.008;11.144;2022-09-17T17:19:57;0.52;;;0.17;;
45642;SDS011;31358;46.008;11.144;2022-09-17T17:22:23;3.58;;;0.55;;
45642;SDS011;31358;46.008;11.144;2022-09-17T17:24:49;1.35;;;0.45;;
45642;SDS011;31358;46.008;11.144;2022-09-17T17:27:14;2.65;;;0.57;;
45642;SDS011;31358;46.008;11.144;2022-09-17T17:29:40;1.73;;;0.47;;
45642;SDS011;31358;46.008;11.144;2022-09-17T17:32:06;0.80;;;0.30;;
45642;SDS011;31358;46.008;11.144;2022-09-17T17:34:32;1.00;;;0.32;;
45642;SDS011;31358;46.008;11.144;2022-09-17T17:36:57;4.38;;;0.50;;
45642;SDS011;31358;46.008;11.144;2022-09-17T17:39:23;0.98;;;0.40;;
45642;SDS011;31358;46.008;11.144;2022-09-17T17:41:49;1.60;;;0.30;;
45642;SDS011;31358;46.008;11.144;2022-09-17T17:44:15;0.57;;;0.20;;
45642;SDS011;31358;46.008;11.144;2022-09-17T17:46:41;0.90;;;0.30;;
45642;SDS011;31358;46.008;11.144;2022-09-17T17:49:06;1.65;;;0.30;;
45642;SDS011;31358;46.008;11.144;2022-09-17T17:51:33;0.95;;;0.50;;
45642;SDS011;31358;46.008;11.144;2022-09-17T17:53:59;0.73;;;0.30;;
45642;SDS011;31358;46.008;11.144;2022-09-17T17:56:24;0.95;;;0.30;;
45642;SDS011;31358;46.008;11.144;2022-09-17T17:58:54;2.05;;;0.50;;
45642;SDS011;31358;46.008;11.144;2022-09-17T18:01:22;1.15;;;0.40;;
45642;SDS011;31358;46.008;11.144;2022-09-17T18:03:54;1.15;;;0.32;;
45642;SDS011;31358;46.008;11.144;2022-09-17T18:06:24;0.75;;;0.38;;
45642;SDS011;31358;46.008;11.144;2022-09-17T18:08:51;1.42;;;0.50;;
45642;SDS011;31358;46.008;11.144;2022-09-17T18:11:17;1.08;;;0.22;;
45642;SDS011;31358;46.008;11.144;2022-09-17T18:13:43;1.05;;;0.50;;
45642;SDS011;31358;46.008;11.144;2022-09-17T18:16:10;2.20;;;0.45;;
45642;SDS011;31358;46.008;11.144;2022-09-17T18:18:38;1.52;;;0.68;;
45642;SDS011;31358;46.008;11.144;2022-09-17T18:21:08;0.70;;;0.40;;
45642;SDS011;31358;46.008;11.144;2022-09-17T18:23:37;1.13;;;0.50;;
45642;SDS011;31358;46.008;11.144;2022-09-17T18:26:05;2.90;;;0.60;;
45642;SDS011;31358;46.008;11.144;2022-09-17T18:28:33;0.82;;;0.40;;
45642;SDS011;31358;46.008;11.144;2022-09-17T18:31:19;0.75;;;0.32;;
45642;SDS011;31358;46.008;11.144;2022-09-17T18:33:47;0.70;;;0.38;;
45642;SDS011;31358;46.008;11.144;2022-09-17T18:36:14;1.27;;;0.45;;
45642;SDS011;31358;46.008;11.144;2022-09-17T18:38:40;0.80;;;0.40;;
45642;SDS011;31358;46.008;11.144;2022-09-17T18:41:07;0.38;;;0.20;;
45642;SDS011;31358;46.008;11.144;2022-09-17T18:43:35;0.70;;;0.30;;
45642;SDS011;31358;46.008;11.144;2022-09-17T18:46:01;1.20;;;0.45;;
45642;SDS011;31358;46.008;11.144;2022-09-17T18:48:28;1.00;;;0.43;;
45642;SDS011;31358;46.008;11.144;2022-09-17T18:53:21;1.08;;;0.30;;
45642;SDS011;31358;46.008;11.144;2022-09-17T18:55:46;2.70;;;0.45;;
45642;SDS011;31358;46.008;11.144;2022-09-17T18:58:12;1.85;;;0.22;;
45642;SDS011;31358;46.008;11.144;2022-09-17T19:00:38;0.90;;;0.38;;